sensor_id;sensor_type;location;lat;lon;timestamp;P1;P2;P0
73623;PMS5003;61921;53.226;-1.296;2023-02-11T00:01:21;11;11;
73623;PMS5003;61921;53.226;-1.296;2023-02-11T00:03:45;11;11;
73623;PMS5003;61921;53.226;-1.296;2023-02-11T00:06:10;8;8;
73623;PMS5003;61921;53.226;-1.296;2023-02-11T00:08:36;10;9;
73623;PMS5003;61921;53.226;-1.296;2023-02-11T00:11:01;9;9;
73623;PMS5003;61921;53.226;-1.296;2023-02-11T00:13:26;11;11;
73623;PMS5003;61921;53.226;-1.296;2023-02-11T00:15:53;12;12;
73623;PMS5003;61921;53.226;-1.296;2023-02-11T00:18:17;12;12;
73623;PMS5003;61921;53.226;-1.296;2023-02-11T00:20:42;10;10;
73623;PMS5003;61921;53.226;-1.296;2023-02-11T00:23:08;14;14;
73623;PMS5003;61921;53.226;-1.296;2023-02-11T00:25:33;9;9;
73623;PMS5003;61921;53.226;-1.296;2023-02-11T00:27:58;15;13;
73623;PMS5003;61921;53.226;-1.296;2023-02-11T00:30:24;9;9;
73623;PMS5003;61921;53.226;-1.296;2023-02-11T00:32:49;13;12;
73623;PMS5003;61921;53.226;-1.296;2023-02-11T00:35:15;13;13;
73623;PMS5003;61921;53.226;-1.296;2023-02-11T00:37:40;11;11;
73623;PMS5003;61921;53.226;-1.296;2023-02-11T00:40:06;16;12;
73623;PMS5003;61921;53.226;-1.296;2023-02-11T00:42:31;13;12;
73623;PMS5003;61921;53.226;-1.296;2023-02-11T00:44:56;10;10;
73623;PMS5003;61921;53.226;-1.296;2023-02-11T00:47:21;14;12;
73623;PMS5003;61921;53.226;-1.296;2023-02-11T00:49:47;10;10;
73623;PMS5003;61921;53.226;-1.296;2023-02-11T00:52:12;13;13;
73623;PMS5003;61921;53.226;-1.296;2023-02-11T00:54:38;12;12;
73623;PMS5003;61921;53.226;-1.296;2023-02-11T00:57:03;12;12;
73623;PMS5003;61921;53.226;-1.296;2023-02-11T00:59:28;12;12;
73623;PMS5003;61921;53.226;-1.296;2023-02-11T01:01:54;14;11;
73623;PMS5003;61921;53.226;-1.296;2023-02-11T01:04:19;13;13;
73623;PMS5003;61921;53.226;-1.296;2023-02-11T01:06:44;15;14;
73623;PMS5003;61921;53.226;-1.296;2023-02-11T01:09:10;14;12;
73623;PMS5003;61921;53.226;-1.296;2023-02-11T01:11:35;14;14;
73623;PMS5003;61921;53.226;-1.296;2023-02-11T01:14:01;16;15;
73623;PMS5003;61921;53.226;-1.296;2023-02-11T01:16:26;15;14;
73623;PMS5003;61921;53.226;-1.296;2023-02-11T01:18:51;15;15;
73623;PMS5003;61921;53.226;-1.296;2023-02-11T01:21:17;16;16;
73623;PMS5003;61921;53.226;-1.296;2023-02-11T01:23:42;16;15;
73623;PMS5003;61921;53.226;-1.296;2023-02-11T01:26:07;16;14;
73623;PMS5003;61921;53.226;-1.296;2023-02-11T01:28:33;12;12;
73623;PMS5003;61921;53.226;-1.296;2023-02-11T01:30:58;18;15;
73623;PMS5003;61921;53.226;-1.296;2023-02-11T01:33:23;14;12;
73623;PMS5003;61921;53.226;-1.296;2023-02-11T01:35:49;14;13;
73623;PMS5003;61921;53.226;-1.296;2023-02-11T01:38:15;16;13;
73623;PMS5003;61921;53.226;-1.296;2023-02-11T01:40:45;13;13;
73623;PMS5003;61921;53.226;-1.296;2023-02-11T01:43:05;14;12;
73623;PMS5003;61921;53.226;-1.296;2023-02-11T01:47:55;12;11;
73623;PMS5003;61921;53.226;-1.296;2023-02-11T01:50:21;9;9;
73623;PMS5003;61921;53.226;-1.296;2023-02-11T01:52:46;11;11;
73623;PMS5003;61921;53.226;-1.296;2023-02-11T01:55:12;12;10;
73623;PMS5003;61921;53.226;-1.296;2023-02-11T01:57:38;9;9;
73623;PMS5003;61921;53.226;-1.296;2023-02-11T02:00:05;13;13;
73623;PMS5003;61921;53.226;-1.296;2023-02-11T02:02:29;10;9;
73623;PMS5003;61921;53.226;-1.296;2023-02-11T02:04:55;9;8;
73623;PMS5003;61921;53.226;-1.296;2023-02-11T02:07:23;11;11;
73623;PMS5003;61921;53.226;-1.296;2023-02-11T02:09:47;11;9;
73623;PMS5003;61921;53.226;-1.296;2023-02-11T02:12:10;8;8;
73623;PMS5003;61921;53.226;-1.296;2023-02-11T02:14:37;9;9;
73623;PMS5003;61921;53.226;-1.296;2023-02-11T02:17:01;7;7;
73623;PMS5003;61921;53.226;-1.296;2023-02-11T02:24:21;9;9;
73623;PMS5003;61921;53.226;-1.296;2023-02-11T02:26:53;8;8;
73623;PMS5003;61921;53.226;-1.296;2023-02-11T02:29:16;9;8;
73623;PMS5003;61921;53.226;-1.296;2023-02-11T02:31:39;10;10;
73623;PMS5003;61921;53.226;-1.296;2023-02-11T02:33:59;9;8;
73623;PMS5003;61921;53.226;-1.296;2023-02-11T02:36:27;8;8;
73623;PMS5003;61921;53.226;-1.296;2023-02-11T02:38:51;8;8;
73623;PMS5003;61921;53.226;-1.296;2023-02-11T02:41:15;8;6;
73623;PMS5003;61921;53.226;-1.296;2023-02-11T02:43:41;10;7;
73623;PMS5003;61921;53.226;-1.296;2023-02-11T02:46:10;7;6;
73623;PMS5003;61921;53.226;-1.296;2023-02-11T02:48:32;8;8;
73623;PMS5003;61921;53.226;-1.296;2023-02-11T02:51:00;7;5;
73623;PMS5003;61921;53.226;-1.296;2023-02-11T02:53:23;5;4;
73623;PMS5003;61921;53.226;-1.296;2023-02-11T02:55:51;6;5;
73623;PMS5003;61921;53.226;-1.296;2023-02-11T02:58:18;6;5;
73623;PMS5003;61921;53.226;-1.296;2023-02-11T03:00:40;3;3;
73623;PMS5003;61921;53.226;-1.296;2023-02-11T03:03:09;5;5;
73623;PMS5003;61921;53.226;-1.296;2023-02-11T03:05:31;5;5;
73623;PMS5003;61921;53.226;-1.296;2023-02-11T03:07:56;4;4;
73623;PMS5003;61921;53.226;-1.296;2023-02-11T03:10:21;6;6;
73623;PMS5003;61921;53.226;-1.296;2023-02-11T03:12:46;3;3;
73623;PMS5003;61921;53.226;-1.296;2023-02-11T03:15:11;3;3;
73623;PMS5003;61921;53.226;-1.296;2023-02-11T03:17:38;2;2;
73623;PMS5003;61921;53.226;-1.296;2023-02-11T03:20:02;3;3;
73623;PMS5003;61921;53.226;-1.296;2023-02-11T03:22:29;2;2;
73623;PMS5003;61921;53.226;-1.296;2023-02-11T03:24:53;1;1;
73623;PMS5003;61921;53.226;-1.296;2023-02-11T03:27:19;2;2;
73623;PMS5003;61921;53.226;-1.296;2023-02-11T03:29:46;4;3;
73623;PMS5003;61921;53.226;-1.296;2023-02-11T03:32:11;2;2;
73623;PMS5003;61921;53.226;-1.296;2023-02-11T03:34:36;1;1;
73623;PMS5003;61921;53.226;-1.296;2023-02-11T03:37:01;2;2;
73623;PMS5003;61921;53.226;-1.296;2023-02-11T03:39:27;2;2;
73623;PMS5003;61921;53.226;-1.296;2023-02-11T03:41:51;2;2;
73623;PMS5003;61921;53.226;-1.296;2023-02-11T03:44:17;2;2;
73623;PMS5003;61921;53.226;-1.296;2023-02-11T03:46:43;3;2;
73623;PMS5003;61921;53.226;-1.296;2023-02-11T03:49:08;3;3;
73623;PMS5003;61921;53.226;-1.296;2023-02-11T03:51:33;2;1;
73623;PMS5003;61921;53.226;-1.296;2023-02-11T03:53:59;3;3;
73623;PMS5003;61921;53.226;-1.296;2023-02-11T03:56:25;4;3;
73623;PMS5003;61921;53.226;-1.296;2023-02-11T03:58:49;1;1;
73623;PMS5003;61921;53.226;-1.296;2023-02-11T04:01:14;3;3;
73623;PMS5003;61921;53.226;-1.296;2023-02-11T04:03:40;3;3;
73623;PMS5003;61921;53.226;-1.296;2023-02-11T04:06:06;4;4;
73623;PMS5003;61921;53.226;-1.296;2023-02-11T04:08:31;3;3;
73623;PMS5003;61921;53.226;-1.296;2023-02-11T04:10:56;4;2;
73623;PMS5003;61921;53.226;-1.296;2023-02-11T04:13:22;4;4;
73623;PMS5003;61921;53.226;-1.296;2023-02-11T04:15:47;2;2;
73623;PMS5003;61921;53.226;-1.296;2023-02-11T04:18:13;3;3;
73623;PMS5003;61921;53.226;-1.296;2023-02-11T04:20:38;2;2;
73623;PMS5003;61921;53.226;-1.296;2023-02-11T04:23:04;3;3;
73623;PMS5003;61921;53.226;-1.296;2023-02-11T04:25:29;3;3;
73623;PMS5003;61921;53.226;-1.296;2023-02-11T04:27:54;3;2;
73623;PMS5003;61921;53.226;-1.296;2023-02-11T04:30:20;3;3;
73623;PMS5003;61921;53.226;-1.296;2023-02-11T04:32:45;2;2;
73623;PMS5003;61921;53.226;-1.296;2023-02-11T04:35:11;2;2;
73623;PMS5003;61921;53.226;-1.296;2023-02-11T04:37:36;2;2;
73623;PMS5003;61921;53.226;-1.296;2023-02-11T04:40:02;2;2;
73623;PMS5003;61921;53.226;-1.296;2023-02-11T04:42:27;2;2;
73623;PMS5003;61921;53.226;-1.296;2023-02-11T04:44:52;2;2;
73623;PMS5003;61921;53.226;-1.296;2023-02-11T04:47:18;2;2;
73623;PMS5003;61921;53.226;-1.296;2023-02-11T04:49:43;1;1;
73623;PMS5003;61921;53.226;-1.296;2023-02-11T04:52:09;1;1;
73623;PMS5003;61921;53.226;-1.296;2023-02-11T04:54:34;4;1;
73623;PMS5003;61921;53.226;-1.296;2023-02-11T04:57:00;2;2;
73623;PMS5003;61921;53.226;-1.296;2023-02-11T04:59:25;2;2;
73623;PMS5003;61921;53.226;-1.296;2023-02-11T05:01:50;2;2;
73623;PMS5003;61921;53.226;-1.296;2023-02-11T05:04:16;3;2;
73623;PMS5003;61921;53.226;-1.296;2023-02-11T05:06:41;2;2;
73623;PMS5003;61921;53.226;-1.296;2023-02-11T05:09:08;1;1;
73623;PMS5003;61921;53.226;-1.296;2023-02-11T05:11:33;1;1;
73623;PMS5003;61921;53.226;-1.296;2023-02-11T05:13:58;2;2;
73623;PMS5003;61921;53.226;-1.296;2023-02-11T05:16:23;3;3;
73623;PMS5003;61921;53.226;-1.296;2023-02-11T05:18:49;2;2;
73623;PMS5003;61921;53.226;-1.296;2023-02-11T05:21:15;4;3;
73623;PMS5003;61921;53.226;-1.296;2023-02-11T05:23:40;2;2;
73623;PMS5003;61921;53.226;-1.296;2023-02-11T05:26:05;3;2;
73623;PMS5003;61921;53.226;-1.296;2023-02-11T05:28:31;1;1;
73623;PMS5003;61921;53.226;-1.296;2023-02-11T05:30:56;2;2;
73623;PMS5003;61921;53.226;-1.296;2023-02-11T05:33:21;1;1;
73623;PMS5003;61921;53.226;-1.296;2023-02-11T05:35:47;2;1;
73623;PMS5003;61921;53.226;-1.296;2023-02-11T05:38:12;3;2;
73623;PMS5003;61921;53.226;-1.296;2023-02-11T05:40:38;1;1;
73623;PMS5003;61921;53.226;-1.296;2023-02-11T05:43:03;4;4;
73623;PMS5003;61921;53.226;-1.296;2023-02-11T05:45:28;1;1;
73623;PMS5003;61921;53.226;-1.296;2023-02-11T05:47:54;2;2;
73623;PMS5003;61921;53.226;-1.296;2023-02-11T05:50:20;1;1;
73623;PMS5003;61921;53.226;-1.296;2023-02-11T05:52:45;1;0;
73623;PMS5003;61921;53.226;-1.296;2023-02-11T05:55:10;0;0;
73623;PMS5003;61921;53.226;-1.296;2023-02-11T05:57:36;1;1;
73623;PMS5003;61921;53.226;-1.296;2023-02-11T06:00:02;2;1;
73623;PMS5003;61921;53.226;-1.296;2023-02-11T06:02:26;3;2;
73623;PMS5003;61921;53.226;-1.296;2023-02-11T06:04:52;1;1;
73623;PMS5003;61921;53.226;-1.296;2023-02-11T06:07:17;4;1;
73623;PMS5003;61921;53.226;-1.296;2023-02-11T06:09:43;3;2;
73623;PMS5003;61921;53.226;-1.296;2023-02-11T06:12:08;0;0;
73623;PMS5003;61921;53.226;-1.296;2023-02-11T06:14:34;2;2;
73623;PMS5003;61921;53.226;-1.296;2023-02-11T06:16:59;1;1;
73623;PMS5003;61921;53.226;-1.296;2023-02-11T06:19:25;0;0;
73623;PMS5003;61921;53.226;-1.296;2023-02-11T06:21:50;3;3;
73623;PMS5003;61921;53.226;-1.296;2023-02-11T06:24:16;2;2;
73623;PMS5003;61921;53.226;-1.296;2023-02-11T06:26:41;1;1;
73623;PMS5003;61921;53.226;-1.296;2023-02-11T06:29:06;0;0;
73623;PMS5003;61921;53.226;-1.296;2023-02-11T06:31:32;1;1;
73623;PMS5003;61921;53.226;-1.296;2023-02-11T06:33:57;2;1;
73623;PMS5003;61921;53.226;-1.296;2023-02-11T06:36:23;2;2;
73623;PMS5003;61921;53.226;-1.296;2023-02-11T06:38:48;1;1;
73623;PMS5003;61921;53.226;-1.296;2023-02-11T06:41:14;2;2;
73623;PMS5003;61921;53.226;-1.296;2023-02-11T06:43:39;2;2;
73623;PMS5003;61921;53.226;-1.296;2023-02-11T06:46:05;2;2;
73623;PMS5003;61921;53.226;-1.296;2023-02-11T06:48:30;1;1;
73623;PMS5003;61921;53.226;-1.296;2023-02-11T06:50:55;2;2;
73623;PMS5003;61921;53.226;-1.296;2023-02-11T06:53:21;3;2;
73623;PMS5003;61921;53.226;-1.296;2023-02-11T06:55:46;2;2;
73623;PMS5003;61921;53.226;-1.296;2023-02-11T06:58:12;5;3;
73623;PMS5003;61921;53.226;-1.296;2023-02-11T07:00:37;4;3;
73623;PMS5003;61921;53.226;-1.296;2023-02-11T07:03:03;6;4;
73623;PMS5003;61921;53.226;-1.296;2023-02-11T07:05:28;3;3;
73623;PMS5003;61921;53.226;-1.296;2023-02-11T07:07:53;7;5;
73623;PMS5003;61921;53.226;-1.296;2023-02-11T07:10:19;2;2;
73623;PMS5003;61921;53.226;-1.296;2023-02-11T07:12:44;5;5;
73623;PMS5003;61921;53.226;-1.296;2023-02-11T07:15:10;4;4;
73623;PMS5003;61921;53.226;-1.296;2023-02-11T07:17:35;7;6;
73623;PMS5003;61921;53.226;-1.296;2023-02-11T07:20:00;6;5;
73623;PMS5003;61921;53.226;-1.296;2023-02-11T07:22:26;3;3;
73623;PMS5003;61921;53.226;-1.296;2023-02-11T07:24:51;4;4;
73623;PMS5003;61921;53.226;-1.296;2023-02-11T07:27:17;3;3;
73623;PMS5003;61921;53.226;-1.296;2023-02-11T07:29:42;4;4;
73623;PMS5003;61921;53.226;-1.296;2023-02-11T07:32:08;4;4;
73623;PMS5003;61921;53.226;-1.296;2023-02-11T07:34:33;5;3;
73623;PMS5003;61921;53.226;-1.296;2023-02-11T07:36:59;6;5;
73623;PMS5003;61921;53.226;-1.296;2023-02-11T07:39:24;5;5;
73623;PMS5003;61921;53.226;-1.296;2023-02-11T07:41:50;5;5;
73623;PMS5003;61921;53.226;-1.296;2023-02-11T07:44:15;6;6;
73623;PMS5003;61921;53.226;-1.296;2023-02-11T07:46:40;4;4;
73623;PMS5003;61921;53.226;-1.296;2023-02-11T07:49:06;3;3;
73623;PMS5003;61921;53.226;-1.296;2023-02-11T07:51:31;2;2;
73623;PMS5003;61921;53.226;-1.296;2023-02-11T07:53:58;2;2;
73623;PMS5003;61921;53.226;-1.296;2023-02-11T07:56:23;4;4;
73623;PMS5003;61921;53.226;-1.296;2023-02-11T07:58:48;3;3;
73623;PMS5003;61921;53.226;-1.296;2023-02-11T08:01:14;3;3;
73623;PMS5003;61921;53.226;-1.296;2023-02-11T08:03:39;2;2;
73623;PMS5003;61921;53.226;-1.296;2023-02-11T08:06:05;2;2;
73623;PMS5003;61921;53.226;-1.296;2023-02-11T08:08:30;2;2;
73623;PMS5003;61921;53.226;-1.296;2023-02-11T08:10:55;3;3;
73623;PMS5003;61921;53.226;-1.296;2023-02-11T08:13:21;1;1;
73623;PMS5003;61921;53.226;-1.296;2023-02-11T08:15:46;2;2;
73623;PMS5003;61921;53.226;-1.296;2023-02-11T08:18:11;3;2;
73623;PMS5003;61921;53.226;-1.296;2023-02-11T08:20:37;1;1;
73623;PMS5003;61921;53.226;-1.296;2023-02-11T08:23:04;3;3;
73623;PMS5003;61921;53.226;-1.296;2023-02-11T08:25:28;3;3;
73623;PMS5003;61921;53.226;-1.296;2023-02-11T08:27:53;2;1;
73623;PMS5003;61921;53.226;-1.296;2023-02-11T08:30:19;2;2;
73623;PMS5003;61921;53.226;-1.296;2023-02-11T08:32:44;1;1;
73623;PMS5003;61921;53.226;-1.296;2023-02-11T08:35:10;3;2;
73623;PMS5003;61921;53.226;-1.296;2023-02-11T08:37:35;2;1;
73623;PMS5003;61921;53.226;-1.296;2023-02-11T08:40:00;2;2;
73623;PMS5003;61921;53.226;-1.296;2023-02-11T08:42:26;2;2;
73623;PMS5003;61921;53.226;-1.296;2023-02-11T08:44:51;1;1;
73623;PMS5003;61921;53.226;-1.296;2023-02-11T08:47:17;1;1;
73623;PMS5003;61921;53.226;-1.296;2023-02-11T08:49:42;2;2;
73623;PMS5003;61921;53.226;-1.296;2023-02-11T08:52:08;2;2;
73623;PMS5003;61921;53.226;-1.296;2023-02-11T08:54:34;1;1;
73623;PMS5003;61921;53.226;-1.296;2023-02-11T08:56:59;1;1;
73623;PMS5003;61921;53.226;-1.296;2023-02-11T08:59:24;1;1;
73623;PMS5003;61921;53.226;-1.296;2023-02-11T09:01:49;3;2;
73623;PMS5003;61921;53.226;-1.296;2023-02-11T09:04:15;5;4;
73623;PMS5003;61921;53.226;-1.296;2023-02-11T09:06:40;2;2;
73623;PMS5003;61921;53.226;-1.296;2023-02-11T09:09:10;2;2;
73623;PMS5003;61921;53.226;-1.296;2023-02-11T09:11:32;2;2;
73623;PMS5003;61921;53.226;-1.296;2023-02-11T09:13:57;1;1;
73623;PMS5003;61921;53.226;-1.296;2023-02-11T09:16:23;5;5;
73623;PMS5003;61921;53.226;-1.296;2023-02-11T09:18:48;3;2;
73623;PMS5003;61921;53.226;-1.296;2023-02-11T09:21:14;3;1;
73623;PMS5003;61921;53.226;-1.296;2023-02-11T09:23:38;1;1;
73623;PMS5003;61921;53.226;-1.296;2023-02-11T09:26:04;3;2;
73623;PMS5003;61921;53.226;-1.296;2023-02-11T09:28:29;2;2;
73623;PMS5003;61921;53.226;-1.296;2023-02-11T09:30:55;1;1;
73623;PMS5003;61921;53.226;-1.296;2023-02-11T09:33:20;1;1;
73623;PMS5003;61921;53.226;-1.296;2023-02-11T09:35:46;2;2;
73623;PMS5003;61921;53.226;-1.296;2023-02-11T09:38:11;2;2;
73623;PMS5003;61921;53.226;-1.296;2023-02-11T09:40:40;2;2;
73623;PMS5003;61921;53.226;-1.296;2023-02-11T09:43:03;4;3;
73623;PMS5003;61921;53.226;-1.296;2023-02-11T09:45:28;2;2;
73623;PMS5003;61921;53.226;-1.296;2023-02-11T09:47:54;2;2;
73623;PMS5003;61921;53.226;-1.296;2023-02-11T09:50:21;2;2;
73623;PMS5003;61921;53.226;-1.296;2023-02-11T09:52:45;2;2;
73623;PMS5003;61921;53.226;-1.296;2023-02-11T09:55:14;3;2;
73623;PMS5003;61921;53.226;-1.296;2023-02-11T09:57:35;2;2;
73623;PMS5003;61921;53.226;-1.296;2023-02-11T10:00:00;7;5;
73623;PMS5003;61921;53.226;-1.296;2023-02-11T10:02:27;3;3;
73623;PMS5003;61921;53.226;-1.296;2023-02-11T10:07:18;3;3;
73623;PMS5003;61921;53.226;-1.296;2023-02-11T10:09:46;2;2;
73623;PMS5003;61921;53.226;-1.296;2023-02-11T10:12:13;3;2;
73623;PMS5003;61921;53.226;-1.296;2023-02-11T10:17:01;3;3;
73623;PMS5003;61921;53.226;-1.296;2023-02-11T10:19:31;3;2;
73623;PMS5003;61921;53.226;-1.296;2023-02-11T10:21:51;2;2;
73623;PMS5003;61921;53.226;-1.296;2023-02-11T10:24:15;4;2;
73623;PMS5003;61921;53.226;-1.296;2023-02-11T10:26:40;2;2;
73623;PMS5003;61921;53.226;-1.296;2023-02-11T10:29:09;1;1;
73623;PMS5003;61921;53.226;-1.296;2023-02-11T10:31:33;3;2;
73623;PMS5003;61921;53.226;-1.296;2023-02-11T10:33:57;2;1;
73623;PMS5003;61921;53.226;-1.296;2023-02-11T10:36:23;3;2;
73623;PMS5003;61921;53.226;-1.296;2023-02-11T10:38:47;1;1;
73623;PMS5003;61921;53.226;-1.296;2023-02-11T10:41:15;2;2;
73623;PMS5003;61921;53.226;-1.296;2023-02-11T10:43:38;1;1;
73623;PMS5003;61921;53.226;-1.296;2023-02-11T10:46:03;2;2;
73623;PMS5003;61921;53.226;-1.296;2023-02-11T10:48:36;1;1;
73623;PMS5003;61921;53.226;-1.296;2023-02-11T10:53:20;2;2;
73623;PMS5003;61921;53.226;-1.296;2023-02-11T10:55:49;3;1;
73623;PMS5003;61921;53.226;-1.296;2023-02-11T10:58:17;2;1;
73623;PMS5003;61921;53.226;-1.296;2023-02-11T11:00:37;1;1;
73623;PMS5003;61921;53.226;-1.296;2023-02-11T11:03:02;4;3;
73623;PMS5003;61921;53.226;-1.296;2023-02-11T11:05:28;3;2;
73623;PMS5003;61921;53.226;-1.296;2023-02-11T11:07:52;2;2;
73623;PMS5003;61921;53.226;-1.296;2023-02-11T11:12:46;2;2;
73623;PMS5003;61921;53.226;-1.296;2023-02-11T11:15:15;3;3;
73623;PMS5003;61921;53.226;-1.296;2023-02-11T11:17:34;1;1;
73623;PMS5003;61921;53.226;-1.296;2023-02-11T11:22:24;0;0;
73623;PMS5003;61921;53.226;-1.296;2023-02-11T11:24:50;0;0;
73623;PMS5003;61921;53.226;-1.296;2023-02-11T11:27:16;1;1;
73623;PMS5003;61921;53.226;-1.296;2023-02-11T11:29:42;2;0;
73623;PMS5003;61921;53.226;-1.296;2023-02-11T11:32:10;1;1;
73623;PMS5003;61921;53.226;-1.296;2023-02-11T11:34:32;1;1;
73623;PMS5003;61921;53.226;-1.296;2023-02-11T11:36:57;0;0;
73623;PMS5003;61921;53.226;-1.296;2023-02-11T11:39:23;1;1;
73623;PMS5003;61921;53.226;-1.296;2023-02-11T11:41:49;1;1;
73623;PMS5003;61921;53.226;-1.296;2023-02-11T11:44:18;1;1;
73623;PMS5003;61921;53.226;-1.296;2023-02-11T11:46:39;1;1;
73623;PMS5003;61921;53.226;-1.296;2023-02-11T11:49:08;1;1;
73623;PMS5003;61921;53.226;-1.296;2023-02-11T11:51:29;3;3;
73623;PMS5003;61921;53.226;-1.296;2023-02-11T11:53:57;1;1;
73623;PMS5003;61921;53.226;-1.296;2023-02-11T11:56:20;3;1;
73623;PMS5003;61921;53.226;-1.296;2023-02-11T11:58:45;4;3;
73623;PMS5003;61921;53.226;-1.296;2023-02-11T12:01:14;2;2;
73623;PMS5003;61921;53.226;-1.296;2023-02-11T12:06:06;4;4;
73623;PMS5003;61921;53.226;-1.296;2023-02-11T12:08:32;4;4;
73623;PMS5003;61921;53.226;-1.296;2023-02-11T12:10:58;3;3;
73623;PMS5003;61921;53.226;-1.296;2023-02-11T12:13:24;3;3;
73623;PMS5003;61921;53.226;-1.296;2023-02-11T12:15:48;6;5;
73623;PMS5003;61921;53.226;-1.296;2023-02-11T12:18:15;3;3;
73623;PMS5003;61921;53.226;-1.296;2023-02-11T12:20:37;4;2;
73623;PMS5003;61921;53.226;-1.296;2023-02-11T12:23:06;3;3;
73623;PMS5003;61921;53.226;-1.296;2023-02-11T12:25:28;2;1;
73623;PMS5003;61921;53.226;-1.296;2023-02-11T12:27:55;3;3;
73623;PMS5003;61921;53.226;-1.296;2023-02-11T12:30:21;3;2;
73623;PMS5003;61921;53.226;-1.296;2023-02-11T12:32:45;5;5;
73623;PMS5003;61921;53.226;-1.296;2023-02-11T12:35:15;4;4;
73623;PMS5003;61921;53.226;-1.296;2023-02-11T12:37:39;3;3;
73623;PMS5003;61921;53.226;-1.296;2023-02-11T12:40:01;3;2;
73623;PMS5003;61921;53.226;-1.296;2023-02-11T12:42:30;2;2;
73623;PMS5003;61921;53.226;-1.296;2023-02-11T12:44:55;3;3;
73623;PMS5003;61921;53.226;-1.296;2023-02-11T12:47:17;4;4;
73623;PMS5003;61921;53.226;-1.296;2023-02-11T12:49:52;6;5;
73623;PMS5003;61921;53.226;-1.296;2023-02-11T12:52:11;3;3;
73623;PMS5003;61921;53.226;-1.296;2023-02-11T12:54:32;6;6;
73623;PMS5003;61921;53.226;-1.296;2023-02-11T12:56:58;5;5;
73623;PMS5003;61921;53.226;-1.296;2023-02-11T12:59:27;3;3;
73623;PMS5003;61921;53.226;-1.296;2023-02-11T13:01:47;5;5;
73623;PMS5003;61921;53.226;-1.296;2023-02-11T13:04:15;6;5;
73623;PMS5003;61921;53.226;-1.296;2023-02-11T13:06:39;4;2;
73623;PMS5003;61921;53.226;-1.296;2023-02-11T13:09:05;10;8;
73623;PMS5003;61921;53.226;-1.296;2023-02-11T13:11:32;3;2;
73623;PMS5003;61921;53.226;-1.296;2023-02-11T13:13:56;7;7;
73623;PMS5003;61921;53.226;-1.296;2023-02-11T13:16:28;1;1;
73623;PMS5003;61921;53.226;-1.296;2023-02-11T13:18:47;3;3;
73623;PMS5003;61921;53.226;-1.296;2023-02-11T13:21:21;7;6;
73623;PMS5003;61921;53.226;-1.296;2023-02-11T13:23:38;9;5;
73623;PMS5003;61921;53.226;-1.296;2023-02-11T13:26:04;12;10;
73623;PMS5003;61921;53.226;-1.296;2023-02-11T13:28:30;5;4;
73623;PMS5003;61921;53.226;-1.296;2023-02-11T13:30:52;7;6;
73623;PMS5003;61921;53.226;-1.296;2023-02-11T13:33:19;6;6;
73623;PMS5003;61921;53.226;-1.296;2023-02-11T13:35:44;4;4;
73623;PMS5003;61921;53.226;-1.296;2023-02-11T13:40:34;0;0;
73623;PMS5003;61921;53.226;-1.296;2023-02-11T13:42:59;6;6;
73623;PMS5003;61921;53.226;-1.296;2023-02-11T13:45:27;6;6;
73623;PMS5003;61921;53.226;-1.296;2023-02-11T13:47:49;8;7;
73623;PMS5003;61921;53.226;-1.296;2023-02-11T13:50:19;9;7;
73623;PMS5003;61921;53.226;-1.296;2023-02-11T13:52:40;5;4;
73623;PMS5003;61921;53.226;-1.296;2023-02-11T13:55:08;7;7;
73623;PMS5003;61921;53.226;-1.296;2023-02-11T13:57:32;7;5;
73623;PMS5003;61921;53.226;-1.296;2023-02-11T13:59:56;6;6;
73623;PMS5003;61921;53.226;-1.296;2023-02-11T14:02:26;5;3;
73623;PMS5003;61921;53.226;-1.296;2023-02-11T14:09:38;9;8;
73623;PMS5003;61921;53.226;-1.296;2023-02-11T14:14:28;8;8;
73623;PMS5003;61921;53.226;-1.296;2023-02-11T14:21:44;6;6;
73623;PMS5003;61921;53.226;-1.296;2023-02-11T14:26:38;6;6;
73623;PMS5003;61921;53.226;-1.296;2023-02-11T14:29:02;6;5;
73623;PMS5003;61921;53.226;-1.296;2023-02-11T14:31:25;5;5;
73623;PMS5003;61921;53.226;-1.296;2023-02-11T14:33:54;6;6;
73623;PMS5003;61921;53.226;-1.296;2023-02-11T14:36:21;4;4;
73623;PMS5003;61921;53.226;-1.296;2023-02-11T14:38:44;4;4;
73623;PMS5003;61921;53.226;-1.296;2023-02-11T14:41:08;6;4;
73623;PMS5003;61921;53.226;-1.296;2023-02-11T14:43:34;5;5;
73623;PMS5003;61921;53.226;-1.296;2023-02-11T14:45:57;4;4;
73623;PMS5003;61921;53.226;-1.296;2023-02-11T14:48:24;8;6;
73623;PMS5003;61921;53.226;-1.296;2023-02-11T14:50:48;10;8;
73623;PMS5003;61921;53.226;-1.296;2023-02-11T14:53:13;5;5;
73623;PMS5003;61921;53.226;-1.296;2023-02-11T14:55:39;6;5;
73623;PMS5003;61921;53.226;-1.296;2023-02-11T14:58:05;4;4;
73623;PMS5003;61921;53.226;-1.296;2023-02-11T15:00:29;7;5;
73623;PMS5003;61921;53.226;-1.296;2023-02-11T15:02:54;3;3;
73623;PMS5003;61921;53.226;-1.296;2023-02-11T15:05:20;5;5;
73623;PMS5003;61921;53.226;-1.296;2023-02-11T15:07:45;4;4;
73623;PMS5003;61921;53.226;-1.296;2023-02-11T15:10:14;4;4;
73623;PMS5003;61921;53.226;-1.296;2023-02-11T15:12:35;5;4;
73623;PMS5003;61921;53.226;-1.296;2023-02-11T15:15:01;3;3;
73623;PMS5003;61921;53.226;-1.296;2023-02-11T15:17:28;6;6;
73623;PMS5003;61921;53.226;-1.296;2023-02-11T15:19:52;7;5;
73623;PMS5003;61921;53.226;-1.296;2023-02-11T15:22:23;4;4;
73623;PMS5003;61921;53.226;-1.296;2023-02-11T15:24:42;4;4;
73623;PMS5003;61921;53.226;-1.296;2023-02-11T15:27:09;5;5;
73623;PMS5003;61921;53.226;-1.296;2023-02-11T15:29:34;4;4;
73623;PMS5003;61921;53.226;-1.296;2023-02-11T15:32:03;3;3;
73623;PMS5003;61921;53.226;-1.296;2023-02-11T15:34:24;3;3;
73623;PMS5003;61921;53.226;-1.296;2023-02-11T15:36:50;4;3;
73623;PMS5003;61921;53.226;-1.296;2023-02-11T15:39:16;5;4;
73623;PMS5003;61921;53.226;-1.296;2023-02-11T15:41:40;4;3;
73623;PMS5003;61921;53.226;-1.296;2023-02-11T15:44:24;5;3;
73623;PMS5003;61921;53.226;-1.296;2023-02-11T15:46:32;4;4;
73623;PMS5003;61921;53.226;-1.296;2023-02-11T15:48:56;4;3;
73623;PMS5003;61921;53.226;-1.296;2023-02-11T15:51:23;6;4;
73623;PMS5003;61921;53.226;-1.296;2023-02-11T15:53:47;4;4;
73623;PMS5003;61921;53.226;-1.296;2023-02-11T15:56:13;3;3;
73623;PMS5003;61921;53.226;-1.296;2023-02-11T15:58:38;4;4;
73623;PMS5003;61921;53.226;-1.296;2023-02-11T16:01:03;5;4;
73623;PMS5003;61921;53.226;-1.296;2023-02-11T16:03:28;5;5;
73623;PMS5003;61921;53.226;-1.296;2023-02-11T16:05:54;6;5;
73623;PMS5003;61921;53.226;-1.296;2023-02-11T16:08:20;6;6;
73623;PMS5003;61921;53.226;-1.296;2023-02-11T16:13:17;6;6;
73623;PMS5003;61921;53.226;-1.296;2023-02-11T16:15:42;7;7;
73623;PMS5003;61921;53.226;-1.296;2023-02-11T16:18:01;12;10;
73623;PMS5003;61921;53.226;-1.296;2023-02-11T16:20:26;12;10;
73623;PMS5003;61921;53.226;-1.296;2023-02-11T16:22:52;13;11;
73623;PMS5003;61921;53.226;-1.296;2023-02-11T16:25:17;10;10;
73623;PMS5003;61921;53.226;-1.296;2023-02-11T16:27:42;9;9;
73623;PMS5003;61921;53.226;-1.296;2023-02-11T16:32:32;6;6;
73623;PMS5003;61921;53.226;-1.296;2023-02-11T16:34:58;9;7;
73623;PMS5003;61921;53.226;-1.296;2023-02-11T16:37:23;8;6;
73623;PMS5003;61921;53.226;-1.296;2023-02-11T16:39:49;7;5;
73623;PMS5003;61921;53.226;-1.296;2023-02-11T16:42:14;11;8;
73623;PMS5003;61921;53.226;-1.296;2023-02-11T16:44:39;7;6;
73623;PMS5003;61921;53.226;-1.296;2023-02-11T16:47:06;7;6;
73623;PMS5003;61921;53.226;-1.296;2023-02-11T16:49:31;6;6;
73623;PMS5003;61921;53.226;-1.296;2023-02-11T16:51:57;6;6;
73623;PMS5003;61921;53.226;-1.296;2023-02-11T16:54:21;6;6;
73623;PMS5003;61921;53.226;-1.296;2023-02-11T16:56:46;5;4;
73623;PMS5003;61921;53.226;-1.296;2023-02-11T16:59:12;6;5;
73623;PMS5003;61921;53.226;-1.296;2023-02-11T17:01:37;7;6;